Alum Bank, Pennsylvania
Current Conditions -  °F | °C
As of 3:54 AM on Sunday 23 Nov 2014 (Local Time) from KJST Reporting Station
Overcast Overcast  
Wind Chill: 42°   Ceiling: 5500
Heat Index: 46°   Visibility: 10mi
Dew Point: 25°   Wind: 7mph
Humidity: 44%   Direction: 220°SW
Pressure: 30.1"   Gusts: NA
Location:  40.18°N, 78.61°W
Report Text: KJST 230854Z AUTO 22006KT 10SM BKN055 OVC075 08/M04 A3010 RMK AO2 SLP204 T00781039 58003
Loading
Personal Weather Stations






























Interactive Weather Map New forecast layout! Learn more

10-Day Weather Forecast

Advertisements
Track Severe Weather on mobile